Time;durP1;ratioP1;P1;durP2;ratioP2;P2;SDS_P1;SDS_P2;PMS_P1;PMS_P2;Temp;Humidity;BMP_temperature;BMP_pressure;BME280_temperature;BME280_humidity;BME280_pressure;Samples;Min_cycle;Max_cycle;Signal;HPM_P1;HPM_P2
2022/03/22 00:02:34;;;;;;;71.97;33.33;;;;;;;3.93;76.13;102991.97;10587834;28;20229;-64
2022/03/22 00:07:37;;;;;;;75.07;37.47;;;;;;;3.86;79.05;102992.38;10587608;28;20233;-58
2022/03/22 00:12:41;;;;;;;79.03;37.30;;;;;;;3.73;79.24;102996.72;10587232;28;20225;-56
2022/03/22 00:17:46;;;;;;;87.30;38.73;;;;;;;3.68;77.88;102991.28;10587303;28;20222;-60
2022/03/22 00:22:49;;;;;;;94.75;48.35;;;;;;;3.74;77.46;102981.38;10584694;28;20440;-61
2022/03/22 00:27:56;;;;;;;86.77;41.13;;;;;;;3.50;79.40;102987.63;10586717;28;20226;-65
2022/03/22 00:33:02;;;;;;;84.00;40.33;;;;;;;3.48;80.26;102986.66;10586923;28;20846;-64
2022/03/22 00:38:08;;;;;;;92.33;40.90;;;;;;;3.46;80.04;102989.13;10586254;28;20234;-63
2022/03/22 00:43:11;;;;;;;89.43;41.80;;;;;;;3.44;79.81;102987.25;10586777;28;20655;-64
2022/03/22 00:48:17;;;;;;;87.27;40.67;;;;;;;3.23;81.94;102985.94;10586069;28;20604;-63
2022/03/22 00:53:21;;;;;;;96.27;43.10;;;;;;;3.18;80.83;102987.31;10586207;28;20226;-63
2022/03/22 00:58:24;;;;;;;87.83;41.73;;;;;;;3.15;82.20;102985.47;10571318;28;20686;-63
2022/03/22 01:03:29;;;;;;;92.27;43.07;;;;;;;3.05;80.37;102985.72;10543285;28;20309;-64
2022/03/22 01:08:32;;;;;;;94.40;43.60;;;;;;;2.99;81.08;102980.19;10542825;28;20237;-64
2022/03/22 01:13:37;;;;;;;91.30;42.73;;;;;;;2.93;80.85;102978.91;10544411;28;20212;-65
2022/03/22 01:18:42;;;;;;;90.63;42.57;;;;;;;2.89;81.20;102977.84;10546013;28;20208;-64
2022/03/22 01:23:45;;;;;;;90.07;42.07;;;;;;;2.80;81.24;102976.34;10545635;28;20633;-63
2022/03/22 01:28:48;;;;;;;95.53;42.60;;;;;;;2.76;82.03;102962.47;10545400;28;20211;-61
2022/03/22 01:33:56;;;;;;;98.63;44.57;;;;;;;2.47;81.20;102974.25;10545323;28;20210;-64
2022/03/22 01:39:00;;;;;;;101.40;45.90;;;;;;;2.56;82.89;102969.69;10527237;28;20227;-63
2022/03/22 01:44:04;;;;;;;101.07;44.87;;;;;;;2.45;82.78;102980.94;10544984;28;20209;-64
2022/03/22 01:49:09;;;;;;;95.13;44.80;;;;;;;2.44;81.54;102985.16;10544640;28;20211;-65
2022/03/22 01:54:14;;;;;;;93.77;42.77;;;;;;;2.38;83.26;102981.31;10544601;28;20184;-63
2022/03/22 01:59:17;;;;;;;93.30;42.23;;;;;;;2.32;83.03;102975.03;10544275;28;20217;-64
2022/03/22 02:09:43;;;;;;;94.50;41.10;;;;;;;2.18;83.21;102980.03;10543870;28;20219;-63
2022/03/22 02:14:46;;;;;;;91.27;44.53;;;;;;;2.19;83.11;102984.38;10544042;28;20218;-63
2022/03/22 02:19:51;;;;;;;87.00;40.67;;;;;;;2.00;82.76;102974.56;10542839;28;20199;-65
2022/03/22 02:24:56;;;;;;;93.27;42.13;;;;;;;2.09;84.89;102975.19;10544015;28;20192;-63
2022/03/22 02:29:59;;;;;;;93.30;42.07;;;;;;;2.11;84.73;102976.19;10543553;28;20237;-62
2022/03/22 02:35:04;;;;;;;84.90;38.93;;;;;;;2.09;85.35;102976.84;10543113;28;20187;-65
2022/03/22 02:40:13;;;;;;;86.37;42.60;;;;;;;2.04;86.38;102976.56;10542878;28;20230;-65
2022/03/22 02:45:17;;;;;;;90.87;42.37;;;;;;;2.09;87.20;102979.41;10542782;28;20199;-65
2022/03/22 02:50:21;;;;;;;90.97;41.73;;;;;;;1.95;86.81;102970.81;10542566;28;20198;-65
2022/03/22 02:55:26;;;;;;;88.80;42.30;;;;;;;1.86;88.36;102984.69;10542434;28;20541;-64
2022/03/22 03:00:29;;;;;;;96.17;43.90;;;;;;;1.88;89.38;102978.03;10525829;28;20678;-64
2022/03/22 03:05:33;;;;;;;88.03;42.27;;;;;;;1.85;88.63;102985.47;10542352;28;20194;-66
2022/03/22 03:10:38;;;;;;;85.03;42.37;;;;;;;1.78;90.00;102985.84;10542146;28;20267;-64
2022/03/22 03:15:41;;;;;;;92.93;42.33;;;;;;;1.82;91.21;102988.72;10542452;28;20207;-65
2022/03/22 03:20:44;;;;;;;88.83;41.63;;;;;;;1.74;92.61;102989.91;10542324;28;20213;-65
2022/03/22 03:25:49;;;;;;;94.77;42.97;;;;;;;1.66;93.19;103001.28;10541860;28;20288;-64
2022/03/22 03:30:52;;;;;;;92.80;42.20;;;;;;;1.64;94.33;103000.28;10548516;28;20199;-65
2022/03/22 03:35:56;;;;;;;95.60;43.33;;;;;;;1.77;93.83;102999.44;10550062;28;20520;-64
2022/03/22 03:51:44;;;;;;;88.03;42.20;;;;;;;1.54;94.48;103004.66;10549464;28;20223;-65
2022/03/22 03:56:49;;;;;;;83.93;41.40;;;;;;;1.46;95.88;103016.94;10549378;28;20266;-64
2022/03/22 04:01:53;;;;;;;85.77;41.83;;;;;;;1.50;94.10;103021.47;10549183;28;20235;-65
2022/03/22 04:06:56;;;;;;;83.07;38.53;;;;;;;1.42;94.60;103017.50;10549180;28;20225;-64
2022/03/22 04:12:01;;;;;;;89.83;39.83;;;;;;;1.35;94.21;103010.19;10548771;28;20227;-65
2022/03/22 04:17:07;;;;;;;81.07;40.27;;;;;;;1.35;93.98;103017.00;10548533;28;20222;-66
2022/03/22 04:22:10;;;;;;;80.90;40.27;;;;;;;1.37;94.01;103016.31;10548647;28;20227;-64
2022/03/22 04:32:45;;;;;;;89.73;40.77;;;;;;;1.32;94.26;103025.34;10548095;28;20211;-66
2022/03/22 04:37:52;;;;;;;82.53;39.40;;;;;;;1.46;94.62;103022.06;10547566;28;20664;-64
2022/03/22 04:42:56;;;;;;;83.60;40.30;;;;;;;1.39;95.41;103024.97;10546554;28;20298;-66
2022/03/22 04:47:59;;;;;;;89.17;38.93;;;;;;;1.39;95.17;103024.97;10547024;28;20230;-66
2022/03/22 04:58:30;;;;;;;99.90;39.40;;;;;;;1.57;94.24;103023.66;10472653;28;20223;-63
2022/03/22 05:03:33;;;;;;;84.83;39.77;;;;;;;1.61;92.77;103027.31;10546454;28;20207;-64
2022/03/22 05:08:37;;;;;;;88.43;39.53;;;;;;;1.59;93.17;103026.38;10546274;28;20216;-65
2022/03/22 05:13:41;;;;;;;83.43;40.13;;;;;;;1.61;93.04;103023.09;10546158;28;20258;-63
2022/03/22 05:18:44;;;;;;;81.63;38.53;;;;;;;1.70;92.99;103031.41;10546050;28;20233;-64
2022/03/22 05:23:48;;;;;;;88.03;39.27;;;;;;;1.79;90.66;103031.16;10545680;28;20227;-63
2022/03/22 05:28:52;;;;;;;94.10;39.73;;;;;;;1.79;88.73;103031.16;10545442;28;20248;-67
2022/03/22 05:33:55;;;;;;;86.53;38.57;;;;;;;1.90;89.53;103032.75;10545634;28;20223;-64
2022/03/22 05:38:59;;;;;;;87.80;38.27;;;;;;;1.98;88.09;103034.16;10544912;28;20235;-65
2022/03/22 05:44:04;;;;;;;89.77;39.57;;;;;;;2.01;87.53;103019.91;10544641;28;20237;-64
2022/03/22 05:49:08;;;;;;;85.70;39.13;;;;;;;2.11;87.87;103027.41;10544974;28;20227;-64
2022/03/22 05:54:12;;;;;;;98.33;40.03;;;;;;;2.27;88.74;103025.06;10544397;28;20268;-63
2022/03/22 05:59:16;;;;;;;87.23;40.63;;;;;;;2.38;87.23;103032.56;10544465;28;20232;-65
2022/03/22 06:04:20;;;;;;;76.87;38.57;;;;;;;2.65;86.96;103031.78;10544760;28;20249;-68
2022/03/22 06:09:23;;;;;;;83.77;37.47;;;;;;;2.85;85.27;103024.59;10543753;28;20318;-66
2022/03/22 06:14:28;;;;;;;83.07;34.93;;;;;;;3.12;83.52;103022.88;10543593;28;20212;-67
2022/03/22 06:19:32;;;;;;;73.27;33.97;;;;;;;3.28;83.16;103028.16;10543778;28;20227;-64
2022/03/22 06:24:38;;;;;;;73.10;33.97;;;;;;;3.46;83.57;103019.03;10543425;28;20222;-66
2022/03/22 06:29:45;;;;;;;80.53;35.40;;;;;;;3.60;82.69;103018.19;10543035;28;20280;-67
2022/03/22 06:34:51;;;;;;;78.77;35.77;;;;;;;3.75;82.97;103020.78;10543429;28;20258;-69
2022/03/22 06:39:54;;;;;;;72.40;35.90;;;;;;;3.91;81.49;103026.94;10542738;28;20246;-64
2022/03/22 06:44:58;;;;;;;87.57;36.47;;;;;;;4.07;78.90;103026.16;10540949;28;20217;-64
2022/03/22 06:50:02;;;;;;;84.33;38.30;;;;;;;4.20;79.50;103023.50;10542587;28;20299;-65
2022/03/22 06:55:07;;;;;;;90.10;40.90;;;;;;;4.34;78.56;103025.19;10542057;28;20215;-64
2022/03/22 07:00:15;;;;;;;86.73;38.17;;;;;;;4.45;79.97;103019.84;10541906;28;20640;-63
2022/03/22 07:05:18;;;;;;;90.73;39.77;;;;;;;4.67;79.24;103033.16;10541534;28;20219;-65
2022/03/22 07:10:21;;;;;;;79.53;37.83;;;;;;;4.83;77.86;103026.28;10542452;28;20216;-65
2022/03/22 07:15:31;;;;;;;91.00;36.87;;;;;;;4.97;78.11;103027.94;10542005;28;20532;-65
2022/03/22 07:20:36;;;;;;;89.17;38.67;;;;;;;5.10;77.33;103015.81;10540833;28;20222;-65
2022/03/22 07:25:40;;;;;;;82.33;38.23;;;;;;;5.32;76.52;103020.41;10541279;28;20203;-63
2022/03/22 07:30:45;;;;;;;85.77;40.30;;;;;;;5.49;76.58;103020.53;10536547;28;20226;-63
2022/03/22 07:35:48;;;;;;;88.17;39.97;;;;;;;5.66;76.35;103014.56;10541561;28;20205;-65
2022/03/22 07:40:51;;;;;;;86.07;39.53;;;;;;;5.88;74.90;103011.44;10540689;28;20242;-63
2022/03/22 07:45:56;;;;;;;89.33;39.40;;;;;;;6.12;73.73;103010.13;10541272;28;20516;-65
2022/03/22 07:56:20;;;;;;;80.00;37.37;;;;;;;6.66;70.97;103004.19;10541224;28;20210;-65
2022/03/22 08:01:26;;;;;;;75.00;32.60;;;;;;;6.92;70.45;103004.63;10540498;28;20541;-65
2022/03/22 08:06:31;;;;;;;62.30;30.60;;;;;;;7.20;69.56;103001.59;10540627;28;20278;-64
2022/03/22 08:11:34;;;;;;;66.53;29.87;;;;;;;7.45;67.66;103004.50;10540514;28;20229;-63
2022/03/22 08:16:40;;;;;;;57.57;28.43;;;;;;;7.65;66.00;102995.94;10544659;28;20217;-64
2022/03/22 08:21:44;;;;;;;50.73;26.20;;;;;;;7.99;63.68;102993.97;10548212;28;20283;-64
2022/03/22 08:26:48;;;;;;;58.53;25.60;;;;;;;8.17;63.30;102986.09;10547895;28;20194;-64
2022/03/22 08:31:53;;;;;;;45.07;24.60;;;;;;;8.42;62.29;102986.31;10547486;28;20229;-66
2022/03/22 08:36:56;;;;;;;49.93;24.07;;;;;;;8.73;60.18;102976.34;10547352;28;20223;-65
2022/03/22 08:41:59;;;;;;;49.97;23.30;;;;;;;8.96;60.33;102970.38;10547203;28;20636;-65
2022/03/22 08:47:05;;;;;;;44.07;22.80;;;;;;;9.29;58.34;102961.28;10547530;28;20217;-65
2022/03/22 08:52:09;;;;;;;44.70;22.83;;;;;;;9.62;57.37;102960.72;10546507;28;20237;-65
2022/03/22 08:57:12;;;;;;;45.50;20.73;;;;;;;9.93;55.66;102958.38;10546932;28;20198;-65
2022/03/22 09:02:17;;;;;;;43.67;20.40;;;;;;;10.15;54.93;102961.78;10546453;28;20606;-65
2022/03/22 09:07:20;;;;;;;43.40;19.10;;;;;;;10.59;55.07;102952.81;10546048;28;20230;-65
2022/03/22 09:12:23;;;;;;;33.03;17.10;;;;;;;10.81;53.66;102946.56;10546000;28;20218;-65
2022/03/22 09:17:28;;;;;;;31.30;14.60;;;;;;;11.21;53.23;102934.81;10545993;28;20192;-65
2022/03/22 09:22:32;;;;;;;31.73;15.50;;;;;;;11.53;53.09;102930.47;10545696;28;20214;-64
2022/03/22 09:27:35;;;;;;;30.03;13.20;;;;;;;12.12;51.22;102922.53;10545349;28;20191;-66
2022/03/22 09:32:42;;;;;;;25.70;11.97;;;;;;;12.96;49.83;102909.72;10544975;28;20223;-66
2022/03/22 09:37:46;;;;;;;28.77;13.43;;;;;;;13.49;49.43;102907.38;10544902;28;20556;-65
2022/03/22 09:42:49;;;;;;;31.00;13.27;;;;;;;14.20;48.59;102902.50;10544554;28;20667;-66
2022/03/22 09:47:56;;;;;;;24.27;12.37;;;;;;;14.93;44.97;102897.47;10545011;28;20236;-66
2022/03/22 09:52:59;;;;;;;24.83;12.13;;;;;;;15.61;44.75;102888.72;10544349;28;20551;-64
2022/03/22 09:58:03;;;;;;;26.43;12.50;;;;;;;16.26;41.96;102880.50;10544050;28;20219;-67
2022/03/22 10:03:07;;;;;;;19.90;10.27;;;;;;;17.08;41.62;102874.88;10543810;28;20207;-66
2022/03/22 10:08:11;;;;;;;74.83;31.67;;;;;;;17.21;40.15;102871.41;10543953;28;20660;-64
2022/03/22 10:13:14;;;;;;;24.67;13.17;;;;;;;17.93;38.40;102862.81;10543499;28;20249;-65
2022/03/22 10:18:24;;;;;;;21.13;12.57;;;;;;;18.46;38.03;102862.75;10542686;28;20940;-65
2022/03/22 10:23:28;;;;;;;21.10;11.30;;;;;;;18.93;35.94;102852.94;10188462;28;10000358;-64
2022/03/22 10:28:32;;;;;;;20.40;11.53;;;;;;;19.47;36.70;102845.63;10539940;28;20226;-64
2022/03/22 10:33:36;;;;;;;21.77;12.20;;;;;;;19.54;34.09;102841.19;10539364;28;20682;-65
2022/03/22 10:38:39;;;;;;;21.70;11.60;;;;;;;19.89;34.28;102835.63;10538437;28;20243;-62
2022/03/22 10:43:45;;;;;;;20.60;10.00;;;;;;;20.37;32.07;102833.44;10539295;28;20222;-66
2022/03/22 10:48:51;;;;;;;22.30;11.23;;;;;;;20.91;30.70;102821.31;10539139;28;20274;-64
2022/03/22 10:53:54;;;;;;;20.47;11.87;;;;;;;21.13;31.33;102819.28;10538900;28;20215;-65
2022/03/22 10:58:58;;;;;;;17.50;10.57;;;;;;;21.61;30.66;102807.94;10539319;28;20287;-65
2022/03/22 11:04:04;;;;;;;21.52;12.23;;;;;;;21.82;30.65;102801.47;10538667;28;20230;-64
2022/03/22 11:09:08;;;;;;;19.60;12.18;;;;;;;22.13;30.92;102806.19;10538710;28;20238;-66
2022/03/22 11:14:13;;;;;;;20.52;13.93;;;;;;;22.48;30.21;102792.25;10538515;28;20211;-64
2022/03/22 11:19:18;;;;;;;;;;;;;;;22.73;29.92;102789.09;10538671;28;25053;-66
2022/03/22 11:24:24;;;;;;;;;;;;;;;23.24;29.50;102770.28;10538541;28;20274;-67
2022/03/22 11:29:27;;;;;;;;;;;;;;;23.95;29.25;102761.41;10538514;28;19938;-65
2022/03/22 11:34:31;;;;;;;;;;;;;;;24.07;28.54;102765.53;10538145;28;19928;-65
2022/03/22 11:44:56;;;;;;;;;;;;;;;25.08;27.04;102739.44;10538393;28;19924;-64
2022/03/22 11:50:01;;;;;;;;;;;;;;;25.51;27.40;102741.56;10541689;28;20249;-63
2022/03/22 11:55:07;;;;;;;;;;;;;;;26.04;26.47;102735.28;10530779;28;19992;-64
2022/03/22 12:00:11;;;;;;;;;;;;;;;26.25;26.96;102739.81;10545926;28;20026;-64
2022/03/22 12:05:17;;;;;;;;;;;;;;;26.29;25.62;102729.91;10545646;28;20459;-65
2022/03/22 12:10:21;;;;;;;;;;;;;;;26.79;25.73;102713.75;10546533;28;19928;-66
2022/03/22 12:15:25;;;;;;;;;;;;;;;26.46;25.40;102714.16;10545323;28;19930;-63
2022/03/22 12:20:29;;;;;;;;;;;;;;;26.97;25.04;102698.81;10545289;28;20354;-63
2022/03/22 12:25:33;;;;;;;;;;;;;;;27.21;24.40;102706.63;10544766;28;20362;-64
2022/03/22 12:30:37;;;;;;;;;;;;;;;28.63;24.42;102694.06;10544791;28;19934;-63
2022/03/22 12:35:42;;;;;;;;;;;;;;;27.47;24.22;102686.03;10544739;28;19928;-63
2022/03/22 12:40:46;;;;;;;;;;;;;;;27.17;25.67;102686.38;10544234;28;19924;-62
2022/03/22 12:45:50;;;;;;;;;;;;;;;26.59;26.58;102686.13;10544103;28;19943;-65
2022/03/22 12:50:55;;;;;;;;;;;;;;;26.30;26.15;102675.72;10544307;28;19932;-65
2022/03/22 12:55:58;;;;;;;;;;;;;;;25.53;26.26;102683.88;10543822;28;19942;-64
2022/03/22 13:01:01;;;;;;;;;;;;;;;25.35;25.86;102676.50;10542864;28;19971;-65
2022/03/22 13:06:08;;;;;;;;;;;;;;;25.08;26.71;102673.00;10545769;28;19975;-65
2022/03/22 13:11:29;;;;;;;;;;;;;;;24.61;26.21;102663.00;10546903;28;20011;-64
2022/03/22 13:16:34;;;;;;;;;;;;;;;24.07;27.07;102662.91;10546101;28;20372;-66
2022/03/22 13:21:39;;;;;;;;;;;;;;;24.12;27.28;102666.28;10546372;28;19924;-65
2022/03/22 13:26:52;;;;;;;;;;;;;;;23.72;26.99;102657.69;10545965;28;19935;-63
2022/03/22 13:31:56;;;;;;;;;;;;;;;23.18;27.17;102651.16;10545602;28;20265;-65
2022/03/22 13:37:07;;;;;;;;;;;;;;;23.24;27.33;102654.53;10544608;28;19946;-67
2022/03/22 13:42:11;;;;;;;;;;;;;;;22.63;27.51;102638.41;10544803;28;19968;-66
2022/03/22 13:47:29;;;;;;;;;;;;;;;22.55;27.41;102635.06;10544942;28;19924;-64
2022/03/22 13:52:35;;;;;;;;;;;;;;;22.50;28.48;102631.63;10544353;28;19942;-64
2022/03/22 13:57:39;;;;;;;;;;;;;;;22.37;28.98;102630.16;10545137;28;19923;-62
2022/03/22 14:02:42;;;;;;;;;;;;;;;21.84;29.38;102628.66;10544123;28;19924;-61
2022/03/22 14:07:53;;;;;;;;;;;;;;;21.44;29.46;102623.25;10544311;28;19977;-60
2022/03/22 14:12:56;;;;;;;;;;;;;;;21.39;30.24;102614.53;10543839;28;19935;-63
2022/03/22 14:17:59;;;;;;;;;;;;;;;21.01;29.30;102602.91;10544018;28;20322;-67
2022/03/22 14:23:04;;;;;;;;;;;;;;;21.00;29.63;102614.38;10543041;28;20261;-66
2022/03/22 14:28:07;;;;;;;;;;;;;;;20.85;29.06;102610.19;10540694;28;19935;-64
2022/03/22 14:33:11;;;;;;;;;;;;;;;20.19;29.60;102596.25;10176508;28;10000458;-64
2022/03/22 14:38:17;;;;;;;;;;;;;;;19.35;31.22;102599.88;10537694;28;19924;-67
2022/03/22 14:43:21;;;;;;;;;;;;;;;18.65;31.82;102596.09;10528858;28;20015;-62
2022/03/22 14:48:26;;;;;;;;;;;;;;;18.54;32.48;102588.28;10525999;28;19936;-64
2022/03/22 14:58:54;;;;;;;16.45;7.80;;;;;;;17.98;32.63;102582.47;10532194;28;20218;-62
2022/03/22 15:04:00;;;;;;;16.37;8.27;;;;;;;17.80;32.36;102586.06;10533613;28;20225;-63
2022/03/22 15:09:06;;;;;;;20.90;8.47;;;;;;;17.60;32.54;102579.97;10537702;28;20286;-61
2022/03/22 15:14:15;;;;;;;13.07;7.20;;;;;;;17.23;33.51;102575.69;10537682;28;20553;-62
2022/03/22 15:19:18;;;;;;;17.30;8.27;;;;;;;17.15;33.78;102577.47;10535838;28;20239;-61
2022/03/22 15:24:23;;;;;;;18.93;7.30;;;;;;;16.98;34.22;102568.75;10539726;28;20276;-60
2022/03/22 15:29:27;;;;;;;14.50;7.03;;;;;;;16.81;33.92;102565.22;10547218;28;20699;-62
2022/03/22 15:34:30;;;;;;;15.60;7.67;;;;;;;16.68;34.50;102561.75;10541319;28;20260;-61
2022/03/22 15:39:35;;;;;;;15.97;7.57;;;;;;;16.72;34.37;102560.00;10543362;28;20223;-62
2022/03/22 15:44:39;;;;;;;16.80;7.53;;;;;;;17.58;32.89;102557.25;10545430;28;20212;-56
2022/03/22 15:49:42;;;;;;;14.97;7.20;;;;;;;17.60;32.94;102545.84;10545795;28;20219;-62
2022/03/22 15:54:52;;;;;;;19.00;8.40;;;;;;;17.37;33.40;102547.66;10545213;28;20294;-65
2022/03/22 16:00:01;;;;;;;17.83;7.60;;;;;;;17.26;34.29;102552.94;10543355;28;20219;-65
2022/03/22 16:05:05;;;;;;;22.93;8.67;;;;;;;16.92;35.61;102547.75;10544512;28;20207;-64
2022/03/22 16:10:10;;;;;;;24.33;10.03;;;;;;;16.67;37.06;102549.50;10541271;28;20215;-66
2022/03/22 16:15:14;;;;;;;13.90;7.80;;;;;;;16.48;36.65;102544.28;10543964;28;20222;-64
2022/03/22 16:20:20;;;;;;;23.67;8.63;;;;;;;16.12;36.36;102540.69;10526634;28;20624;-65
2022/03/22 16:25:26;;;;;;;14.77;8.07;;;;;;;15.79;37.43;102532.72;10543608;28;20283;-63
2022/03/22 16:30:30;;;;;;;40.07;18.03;;;;;;;15.59;39.00;102536.13;10541082;28;20221;-70
2022/03/22 16:40:58;;;;;;;23.80;9.37;;;;;;;14.98;39.49;102524.44;10543445;28;20571;-67
2022/03/22 16:46:01;;;;;;;21.60;8.30;;;;;;;14.55;40.77;102525.84;10544231;28;20220;-67
2022/03/22 16:51:05;;;;;;;62.37;31.67;;;;;;;14.27;43.05;102526.47;10543569;28;20672;-67
2022/03/22 16:56:11;;;;;;;25.67;13.00;;;;;;;14.02;42.67;102528.78;10543453;28;20229;-67
2022/03/22 17:01:14;;;;;;;23.73;10.57;;;;;;;13.76;42.77;102526.78;10543588;28;20288;-69
2022/03/22 17:06:19;;;;;;;27.30;10.13;;;;;;;13.51;45.03;102540.38;10543170;28;20619;-65
2022/03/22 17:11:28;;;;;;;25.33;11.30;;;;;;;13.25;44.99;102533.97;10543064;28;20731;-66
2022/03/22 17:16:34;;;;;;;26.17;12.43;;;;;;;13.07;45.96;102536.28;10542899;28;20270;-67
2022/03/22 17:21:38;;;;;;;24.43;10.20;;;;;;;12.90;45.37;102542.94;10542175;28;20226;-65
2022/03/22 17:26:46;;;;;;;27.97;11.00;;;;;;;12.69;47.17;102532.19;10540187;28;20613;-63
2022/03/22 17:31:49;;;;;;;18.73;8.47;;;;;;;12.50;47.03;102530.13;10564930;28;20207;-63
2022/03/22 17:36:52;;;;;;;20.73;9.47;;;;;;;12.32;47.90;102529.81;10583675;28;20261;-64
2022/03/22 17:42:02;;;;;;;35.50;16.63;;;;;;;12.08;47.94;102532.00;10577052;28;20281;-63
2022/03/22 17:47:06;;;;;;;28.87;11.40;;;;;;;11.85;47.60;102528.94;10541049;28;20183;-62
2022/03/22 17:52:10;;;;;;;19.90;9.50;;;;;;;11.79;47.31;102538.31;10517413;28;20291;-64
2022/03/22 17:57:14;;;;;;;29.00;11.20;;;;;;;11.49;48.41;102538.56;10499361;28;20199;-66
2022/03/22 18:02:18;;;;;;;37.23;16.87;;;;;;;11.32;49.65;102532.13;10502371;28;20212;-64
2022/03/22 18:07:22;;;;;;;34.00;10.97;;;;;;;11.25;50.22;102531.09;10497619;28;20247;-64
2022/03/22 18:12:27;;;;;;;23.30;9.23;;;;;;;11.00;52.43;102522.72;10498740;28;20798;-64
2022/03/22 18:17:30;;;;;;;24.17;9.00;;;;;;;10.77;52.60;102524.78;10498397;28;20234;-62
2022/03/22 18:22:35;;;;;;;21.30;8.20;;;;;;;10.61;55.08;102525.28;10502511;28;20353;-65
2022/03/22 18:27:40;;;;;;;24.57;9.93;;;;;;;10.38;54.60;102518.63;10539636;28;20226;-66
2022/03/22 18:32:44;;;;;;;39.73;12.53;;;;;;;10.36;53.63;102520.31;10539506;28;20216;-65
2022/03/22 18:37:48;;;;;;;27.20;10.97;;;;;;;10.29;54.87;102529.66;10539389;28;20239;-66
2022/03/22 18:42:54;;;;;;;26.60;10.40;;;;;;;10.08;55.62;102528.16;10539346;28;20211;-66
2022/03/22 18:47:59;;;;;;;30.77;11.17;;;;;;;10.06;55.29;102520.34;10539183;28;20276;-65
2022/03/22 18:53:03;;;;;;;30.33;12.30;;;;;;;9.81;57.16;102533.50;10541374;28;20219;-68
2022/03/22 18:58:08;;;;;;;37.50;13.40;;;;;;;9.55;56.07;102525.81;10541439;28;20294;-68
2022/03/22 19:03:11;;;;;;;32.90;14.30;;;;;;;9.54;56.54;102524.97;10541649;28;20227;-66
2022/03/22 19:08:15;;;;;;;37.45;16.83;;;;;;;9.54;56.25;102526.66;10539235;28;20467;-69
2022/03/22 19:13:20;;;;;;;37.67;14.77;;;;;;;9.47;56.47;102528.22;10541816;28;20279;-66
2022/03/22 19:18:23;;;;;;;51.50;14.40;;;;;;;9.46;57.05;102522.97;10541755;28;20591;-65
2022/03/22 19:23:27;;;;;;;32.30;14.67;;;;;;;9.28;58.91;102526.75;10541579;28;20616;-68
2022/03/22 19:28:32;;;;;;;30.13;14.30;;;;;;;9.11;61.82;102515.03;10541688;28;20649;-69
2022/03/22 19:33:35;;;;;;;35.07;17.10;;;;;;;8.95;59.46;102518.00;10541643;28;20230;-69
2022/03/22 19:38:39;;;;;;;42.83;18.57;;;;;;;8.82;61.09;102520.13;10541352;28;20680;-66
2022/03/22 19:43:44;;;;;;;671.70;361.70;;;;;;;8.71;61.27;102522.41;10541116;28;20824;-67
2022/03/22 19:48:48;;;;;;;49.10;24.53;;;;;;;8.59;62.00;102519.41;10541302;28;20298;-66
2022/03/22 19:53:51;;;;;;;;;;;;;;;8.51;63.14;102522.59;10541809;28;20054;-68
2022/03/22 19:58:55;;;;;;;;;;;;;;;8.39;63.06;102519.59;10541887;28;19949;-66
2022/03/22 20:03:58;;;;;;;;;;;;;;;8.34;65.44;102519.44;10541319;28;19924;-65
2022/03/22 20:09:12;;;;;;;;;;;;;;;8.24;64.00;102513.88;10541567;28;19965;-67
2022/03/22 20:14:17;;;;;;;;;;;;;;;8.14;64.87;102520.44;10548718;28;20245;-68
2022/03/22 20:19:21;;;;;;;;;;;;;;;8.09;65.57;102524.56;10548513;28;20026;-67
2022/03/22 20:24:24;;;;;;;;;;;;;;;8.01;68.38;102518.22;10548174;28;19920;-67
2022/03/22 20:29:28;;;;;;;;;;;;;;;7.92;69.17;102518.78;10547738;28;19934;-65
2022/03/22 20:34:32;;;;;;;;;;;;;;;7.82;67.76;102515.81;10544868;28;19920;-64
2022/03/22 20:39:35;;;;;;;;;;;;;;;7.69;69.05;102511.94;10544894;28;19920;-65
2022/03/22 20:44:39;;;;;;;;;;;;;;;7.61;68.30;102512.50;10544409;28;19931;-65
2022/03/22 20:49:46;;;;;;;;;;;;;;;7.54;69.88;102515.69;10544604;28;19920;-64
2022/03/22 20:54:49;;;;;;;;;;;;;;;7.62;69.30;102509.06;10544493;28;20006;-66
2022/03/22 20:59:56;;;;;;;;;;;;;;;7.60;69.86;102508.13;10544310;28;19919;-67
2022/03/22 21:05:00;;;;;;;;;;;;;;;7.50;68.20;102512.09;10544004;28;19920;-67
2022/03/22 21:10:03;;;;;;;;;;;;;;;7.37;70.24;102502.13;10205561;28;10000230;-67
2022/03/22 21:15:08;;;;;;;;;;;;;;;7.27;70.06;102506.88;10585420;28;19920;-65
2022/03/22 21:20:12;;;;;;;;;;;;;;;7.14;69.98;102507.25;10586242;28;19920;-67
2022/03/22 21:25:21;;;;;;;;;;;;;;;7.09;69.52;102501.03;10566426;28;20010;-68
2022/03/22 21:30:31;;;;;;;73.27;32.10;;;;;;;6.99;71.17;102504.94;10584558;28;20201;-68
2022/03/22 21:35:34;;;;;;;67.20;31.77;;;;;;;6.90;71.97;102499.47;10584636;28;20808;-65
2022/03/22 21:40:39;;;;;;;76.87;40.63;;;;;;;6.95;73.24;102503.94;10581205;28;20399;-64
2022/03/22 21:45:45;;;;;;;75.28;42.22;;;;;;;6.88;71.25;102491.66;10581232;28;20402;-69
2022/03/22 21:50:48;;;;;;;78.33;42.87;;;;;;;6.76;73.08;102483.44;10581111;28;20394;-66
2022/03/22 21:55:52;;;;;;;83.70;46.13;;;;;;;6.77;73.04;102487.78;10580579;28;20398;-65
2022/03/22 22:00:58;;;;;;;85.25;45.85;;;;;;;6.75;71.85;102485.94;10580706;28;20836;-66
2022/03/22 22:06:03;;;;;;;83.90;47.83;;;;;;;6.77;72.71;102485.19;10580538;28;20431;-68
2022/03/22 22:11:06;;;;;;;84.57;47.60;;;;;;;6.70;73.17;102474.56;10556126;28;20420;-67
2022/03/22 22:16:11;;;;;;;83.63;48.27;;;;;;;6.57;74.94;102478.38;10538321;28;20806;-64
2022/03/22 22:21:16;;;;;;;89.63;50.03;;;;;;;6.43;74.41;102469.19;10541283;28;20389;-65
2022/03/22 22:26:19;;;;;;;94.43;51.35;;;;;;;6.41;74.66;102468.25;10540762;28;20408;-65
2022/03/22 22:36:41;;;;;;;91.85;52.00;;;;;;;6.31;76.99;102467.81;10538993;28;20431;-65
2022/03/22 22:41:44;;;;;;;89.82;52.53;;;;;;;6.19;78.69;102464.72;10540515;28;20776;-67
2022/03/22 22:46:49;;;;;;;91.43;52.45;;;;;;;6.14;78.09;102454.25;10540112;28;20394;-66
2022/03/22 22:51:55;;;;;;;94.03;52.80;;;;;;;6.00;77.86;102450.22;10540186;28;20404;-65
2022/03/22 22:56:58;;;;;;;93.30;52.25;;;;;;;5.86;77.61;102448.75;10539924;28;20388;-70
2022/03/22 23:02:03;;;;;;;99.25;55.47;;;;;;;5.90;79.41;102452.31;10539733;28;20399;-65
2022/03/22 23:12:27;;;;;;;92.25;55.42;;;;;;;5.97;81.28;102439.75;10539671;28;20407;-65
2022/03/22 23:17:32;;;;;;;101.27;55.97;;;;;;;5.93;81.23;102430.16;10539593;28;20392;-67
2022/03/22 23:22:35;;;;;;;103.03;57.25;;;;;;;5.87;81.54;102437.59;10539241;28;20396;-65
2022/03/22 23:27:39;;;;;;;100.78;57.65;;;;;;;5.91;81.69;102431.78;10538981;28;20877;-67
2022/03/22 23:32:43;;;;;;;97.77;57.80;;;;;;;5.81;82.44;102427.91;10539038;28;20394;-67
2022/03/22 23:37:51;;;;;;;100.15;59.33;;;;;;;5.82;81.94;102421.03;10538922;28;20488;-64
2022/03/22 23:42:54;;;;;;;98.78;58.85;;;;;;;5.76;81.93;102415.66;10538974;28;20746;-65
2022/03/22 23:47:59;;;;;;;104.90;61.27;;;;;;;5.72;81.99;102412.06;10545491;28;20467;-66
2022/03/22 23:53:02;;;;;;;106.93;62.00;;;;;;;5.63;83.22;102421.06;10546689;28;20402;-65
2022/03/22 23:58:06;;;;;;;105.75;60.72;;;;;;;5.58;83.85;102415.75;10546983;28;20484;-69
